sensor_id;sensor_type;location;lat;lon;timestamp;P1;durP1;ratioP1;P2;durP2;ratioP2
505;SDS011;551;48.524;9.056;2022-12-07T00:01:32;8.17;;;6.40;;
505;SDS011;551;48.524;9.056;2022-12-07T00:04:01;7.87;;;6.63;;
505;SDS011;551;48.524;9.056;2022-12-07T00:06:32;9.47;;;6.60;;
505;SDS011;551;48.524;9.056;2022-12-07T00:09:15;8.63;;;6.70;;
505;SDS011;551;48.524;9.056;2022-12-07T00:11:42;12.00;;;6.20;;
505;SDS011;551;48.524;9.056;2022-12-07T00:14:11;9.40;;;6.80;;
505;SDS011;551;48.524;9.056;2022-12-07T00:16:39;7.63;;;6.53;;
505;SDS011;551;48.524;9.056;2022-12-07T00:19:05;9.93;;;6.60;;
505;SDS011;551;48.524;9.056;2022-12-07T00:21:31;6.90;;;5.83;;
505;SDS011;551;48.524;9.056;2022-12-07T00:24:00;7.80;;;6.20;;
505;SDS011;551;48.524;9.056;2022-12-07T00:26:29;8.30;;;6.10;;
505;SDS011;551;48.524;9.056;2022-12-07T00:29:01;9.90;;;6.73;;
505;SDS011;551;48.524;9.056;2022-12-07T00:31:30;8.30;;;6.40;;
505;SDS011;551;48.524;9.056;2022-12-07T00:33:58;8.33;;;5.83;;
505;SDS011;551;48.524;9.056;2022-12-07T00:36:24;7.70;;;6.10;;
505;SDS011;551;48.524;9.056;2022-12-07T00:38:50;8.57;;;6.43;;
505;SDS011;551;48.524;9.056;2022-12-07T00:41:23;11.10;;;6.37;;
505;SDS011;551;48.524;9.056;2022-12-07T00:43:50;9.70;;;5.50;;
505;SDS011;551;48.524;9.056;2022-12-07T00:46:16;8.77;;;5.97;;
505;SDS011;551;48.524;9.056;2022-12-07T00:48:42;8.50;;;6.50;;
505;SDS011;551;48.524;9.056;2022-12-07T00:51:09;9.27;;;6.20;;
505;SDS011;551;48.524;9.056;2022-12-07T00:53:36;7.27;;;6.00;;
505;SDS011;551;48.524;9.056;2022-12-07T00:56:06;7.37;;;5.60;;
505;SDS011;551;48.524;9.056;2022-12-07T00:58:38;7.30;;;6.33;;
505;SDS011;551;48.524;9.056;2022-12-07T01:01:04;5.77;;;5.17;;
505;SDS011;551;48.524;9.056;2022-12-07T01:03:31;6.07;;;5.10;;
505;SDS011;551;48.524;9.056;2022-12-07T01:05:57;6.63;;;5.67;;
505;SDS011;551;48.524;9.056;2022-12-07T01:08:23;6.40;;;5.50;;
505;SDS011;551;48.524;9.056;2022-12-07T01:10:56;10.20;;;6.50;;
505;SDS011;551;48.524;9.056;2022-12-07T01:13:26;7.90;;;5.97;;
505;SDS011;551;48.524;9.056;2022-12-07T01:15:55;5.80;;;5.30;;
505;SDS011;551;48.524;9.056;2022-12-07T01:18:23;7.60;;;6.07;;
505;SDS011;551;48.524;9.056;2022-12-07T01:23:45;6.97;;;5.80;;
505;SDS011;551;48.524;9.056;2022-12-07T01:26:12;8.73;;;5.83;;
505;SDS011;551;48.524;9.056;2022-12-07T01:28:39;8.20;;;6.23;;
505;SDS011;551;48.524;9.056;2022-12-07T01:31:12;7.87;;;6.87;;
505;SDS011;551;48.524;9.056;2022-12-07T01:33:40;6.73;;;5.77;;
505;SDS011;551;48.524;9.056;2022-12-07T01:36:14;11.33;;;5.80;;
505;SDS011;551;48.524;9.056;2022-12-07T01:38:41;9.60;;;6.60;;
505;SDS011;551;48.524;9.056;2022-12-07T01:41:07;10.33;;;6.87;;
505;SDS011;551;48.524;9.056;2022-12-07T01:43:33;10.80;;;6.57;;
505;SDS011;551;48.524;9.056;2022-12-07T01:45:59;8.47;;;6.50;;
505;SDS011;551;48.524;9.056;2022-12-07T01:48:30;12.20;;;7.00;;
505;SDS011;551;48.524;9.056;2022-12-07T01:51:04;10.20;;;6.67;;
505;SDS011;551;48.524;9.056;2022-12-07T01:53:38;10.67;;;6.80;;
505;SDS011;551;48.524;9.056;2022-12-07T01:56:08;9.30;;;5.90;;
505;SDS011;551;48.524;9.056;2022-12-07T01:58:40;11.33;;;6.77;;
505;SDS011;551;48.524;9.056;2022-12-07T02:01:06;8.67;;;7.00;;
505;SDS011;551;48.524;9.056;2022-12-07T02:03:32;10.63;;;6.70;;
505;SDS011;551;48.524;9.056;2022-12-07T02:06:02;8.27;;;6.10;;
505;SDS011;551;48.524;9.056;2022-12-07T02:08:29;8.70;;;6.30;;
505;SDS011;551;48.524;9.056;2022-12-07T02:10:55;11.23;;;6.10;;
505;SDS011;551;48.524;9.056;2022-12-07T02:13:27;7.40;;;6.00;;
505;SDS011;551;48.524;9.056;2022-12-07T02:18:27;6.83;;;5.60;;
505;SDS011;551;48.524;9.056;2022-12-07T02:27:07;8.43;;;5.63;;
505;SDS011;551;48.524;9.056;2022-12-07T02:30:00;9.87;;;6.23;;
505;SDS011;551;48.524;9.056;2022-12-07T02:35:30;7.67;;;6.27;;
505;SDS011;551;48.524;9.056;2022-12-07T02:41:22;10.47;;;6.17;;
505;SDS011;551;48.524;9.056;2022-12-07T02:43:52;9.70;;;5.90;;
505;SDS011;551;48.524;9.056;2022-12-07T02:46:22;13.37;;;6.63;;
505;SDS011;551;48.524;9.056;2022-12-07T02:48:51;10.37;;;6.87;;
505;SDS011;551;48.524;9.056;2022-12-07T02:51:18;8.20;;;6.70;;
505;SDS011;551;48.524;9.056;2022-12-07T02:53:44;11.87;;;7.13;;
505;SDS011;551;48.524;9.056;2022-12-07T02:58:57;9.37;;;6.00;;
505;SDS011;551;48.524;9.056;2022-12-07T03:07:11;9.13;;;6.20;;
505;SDS011;551;48.524;9.056;2022-12-07T03:09:51;9.43;;;6.10;;
505;SDS011;551;48.524;9.056;2022-12-07T03:12:37;6.10;;;5.20;;
505;SDS011;551;48.524;9.056;2022-12-07T03:15:32;8.00;;;5.13;;
505;SDS011;551;48.524;9.056;2022-12-07T03:17:59;5.80;;;4.73;;
505;SDS011;551;48.524;9.056;2022-12-07T03:20:28;6.77;;;5.03;;
505;SDS011;551;48.524;9.056;2022-12-07T03:22:56;6.80;;;5.10;;
505;SDS011;551;48.524;9.056;2022-12-07T03:25:24;7.47;;;5.03;;
505;SDS011;551;48.524;9.056;2022-12-07T03:28:01;7.57;;;5.40;;
505;SDS011;551;48.524;9.056;2022-12-07T03:30:34;7.57;;;5.53;;
505;SDS011;551;48.524;9.056;2022-12-07T03:33:24;8.27;;;5.03;;
505;SDS011;551;48.524;9.056;2022-12-07T03:36:05;6.27;;;4.63;;
505;SDS011;551;48.524;9.056;2022-12-07T03:39:12;5.90;;;4.83;;
505;SDS011;551;48.524;9.056;2022-12-07T03:41:59;8.53;;;5.60;;
505;SDS011;551;48.524;9.056;2022-12-07T03:44:27;8.73;;;5.80;;
505;SDS011;551;48.524;9.056;2022-12-07T03:47:01;8.60;;;6.07;;
505;SDS011;551;48.524;9.056;2022-12-07T03:49:41;8.73;;;5.40;;
505;SDS011;551;48.524;9.056;2022-12-07T03:52:20;9.00;;;5.23;;
505;SDS011;551;48.524;9.056;2022-12-07T03:54:59;11.27;;;6.60;;
505;SDS011;551;48.524;9.056;2022-12-07T03:57:30;9.47;;;5.90;;
505;SDS011;551;48.524;9.056;2022-12-07T03:59:58;8.30;;;5.40;;
505;SDS011;551;48.524;9.056;2022-12-07T04:02:25;8.90;;;5.97;;
505;SDS011;551;48.524;9.056;2022-12-07T04:04:52;8.40;;;6.20;;
505;SDS011;551;48.524;9.056;2022-12-07T04:07:18;9.00;;;5.20;;
505;SDS011;551;48.524;9.056;2022-12-07T04:09:44;6.90;;;4.93;;
505;SDS011;551;48.524;9.056;2022-12-07T04:12:09;6.90;;;5.03;;
505;SDS011;551;48.524;9.056;2022-12-07T04:14:35;6.57;;;5.20;;
505;SDS011;551;48.524;9.056;2022-12-07T04:17:00;8.93;;;5.43;;
505;SDS011;551;48.524;9.056;2022-12-07T04:19:28;7.73;;;5.13;;
505;SDS011;551;48.524;9.056;2022-12-07T04:21:55;7.13;;;4.73;;
505;SDS011;551;48.524;9.056;2022-12-07T04:24:22;7.90;;;5.20;;
505;SDS011;551;48.524;9.056;2022-12-07T04:26:49;9.40;;;4.50;;
505;SDS011;551;48.524;9.056;2022-12-07T04:29:15;6.07;;;4.90;;
505;SDS011;551;48.524;9.056;2022-12-07T04:31:41;7.53;;;4.53;;
505;SDS011;551;48.524;9.056;2022-12-07T04:34:07;6.83;;;5.10;;
505;SDS011;551;48.524;9.056;2022-12-07T04:36:33;8.67;;;5.27;;
505;SDS011;551;48.524;9.056;2022-12-07T04:38:59;8.17;;;5.67;;
505;SDS011;551;48.524;9.056;2022-12-07T04:41:25;8.80;;;6.23;;
505;SDS011;551;48.524;9.056;2022-12-07T04:43:55;8.33;;;5.73;;
505;SDS011;551;48.524;9.056;2022-12-07T04:46:24;11.70;;;5.73;;
505;SDS011;551;48.524;9.056;2022-12-07T04:48:51;13.30;;;6.43;;
505;SDS011;551;48.524;9.056;2022-12-07T04:51:22;9.23;;;7.00;;
505;SDS011;551;48.524;9.056;2022-12-07T04:53:49;12.83;;;6.63;;
505;SDS011;551;48.524;9.056;2022-12-07T04:56:15;9.03;;;6.30;;
505;SDS011;551;48.524;9.056;2022-12-07T04:58:43;10.03;;;6.63;;
505;SDS011;551;48.524;9.056;2022-12-07T05:01:09;9.50;;;6.17;;
505;SDS011;551;48.524;9.056;2022-12-07T05:03:35;8.07;;;6.03;;
505;SDS011;551;48.524;9.056;2022-12-07T05:06:02;7.00;;;4.67;;
505;SDS011;551;48.524;9.056;2022-12-07T05:08:28;9.83;;;6.60;;
505;SDS011;551;48.524;9.056;2022-12-07T05:10:54;9.73;;;5.70;;
505;SDS011;551;48.524;9.056;2022-12-07T05:13:19;9.27;;;6.40;;
505;SDS011;551;48.524;9.056;2022-12-07T05:15:46;10.27;;;6.67;;
505;SDS011;551;48.524;9.056;2022-12-07T05:18:12;17.07;;;7.40;;
505;SDS011;551;48.524;9.056;2022-12-07T05:20:38;10.13;;;6.20;;
505;SDS011;551;48.524;9.056;2022-12-07T05:23:04;9.50;;;6.90;;
505;SDS011;551;48.524;9.056;2022-12-07T05:25:30;10.07;;;6.30;;
505;SDS011;551;48.524;9.056;2022-12-07T05:27:56;17.10;;;7.87;;
505;SDS011;551;48.524;9.056;2022-12-07T05:30:22;16.93;;;8.40;;
505;SDS011;551;48.524;9.056;2022-12-07T05:32:48;12.67;;;7.57;;
505;SDS011;551;48.524;9.056;2022-12-07T05:35:14;15.43;;;7.20;;
505;SDS011;551;48.524;9.056;2022-12-07T05:37:39;10.90;;;6.60;;
505;SDS011;551;48.524;9.056;2022-12-07T05:40:05;9.93;;;6.23;;
505;SDS011;551;48.524;9.056;2022-12-07T05:42:31;13.63;;;8.67;;
505;SDS011;551;48.524;9.056;2022-12-07T05:44:56;10.83;;;6.97;;
505;SDS011;551;48.524;9.056;2022-12-07T05:47:22;12.90;;;6.83;;
505;SDS011;551;48.524;9.056;2022-12-07T05:49:47;13.93;;;7.13;;
505;SDS011;551;48.524;9.056;2022-12-07T05:52:14;10.20;;;6.73;;
505;SDS011;551;48.524;9.056;2022-12-07T05:54:40;11.20;;;7.30;;
505;SDS011;551;48.524;9.056;2022-12-07T05:57:05;16.33;;;8.20;;
505;SDS011;551;48.524;9.056;2022-12-07T05:59:31;13.63;;;7.47;;
505;SDS011;551;48.524;9.056;2022-12-07T06:02:00;14.60;;;7.87;;
505;SDS011;551;48.524;9.056;2022-12-07T06:04:29;16.33;;;9.20;;
505;SDS011;551;48.524;9.056;2022-12-07T06:06:59;11.47;;;7.17;;
505;SDS011;551;48.524;9.056;2022-12-07T06:09:25;11.10;;;7.30;;
505;SDS011;551;48.524;9.056;2022-12-07T06:11:51;12.00;;;6.90;;
505;SDS011;551;48.524;9.056;2022-12-07T06:14:36;9.53;;;6.27;;
505;SDS011;551;48.524;9.056;2022-12-07T06:17:02;13.50;;;7.17;;
505;SDS011;551;48.524;9.056;2022-12-07T06:19:28;9.37;;;6.27;;
505;SDS011;551;48.524;9.056;2022-12-07T06:21:54;9.27;;;5.63;;
505;SDS011;551;48.524;9.056;2022-12-07T06:24:20;11.93;;;6.07;;
505;SDS011;551;48.524;9.056;2022-12-07T06:26:46;13.40;;;7.33;;
505;SDS011;551;48.524;9.056;2022-12-07T06:29:12;11.07;;;7.57;;
505;SDS011;551;48.524;9.056;2022-12-07T06:31:37;12.50;;;7.23;;
505;SDS011;551;48.524;9.056;2022-12-07T06:34:04;10.20;;;7.07;;
505;SDS011;551;48.524;9.056;2022-12-07T06:36:31;13.53;;;8.03;;
505;SDS011;551;48.524;9.056;2022-12-07T06:38:57;9.20;;;6.33;;
505;SDS011;551;48.524;9.056;2022-12-07T06:41:22;15.97;;;7.83;;
505;SDS011;551;48.524;9.056;2022-12-07T06:43:48;14.37;;;7.13;;
505;SDS011;551;48.524;9.056;2022-12-07T06:46:15;15.17;;;7.53;;
505;SDS011;551;48.524;9.056;2022-12-07T06:48:41;15.00;;;9.13;;
505;SDS011;551;48.524;9.056;2022-12-07T06:51:07;12.23;;;7.63;;
505;SDS011;551;48.524;9.056;2022-12-07T06:53:33;12.33;;;7.23;;
505;SDS011;551;48.524;9.056;2022-12-07T06:55:59;15.37;;;8.03;;
505;SDS011;551;48.524;9.056;2022-12-07T06:58:25;13.20;;;8.37;;
505;SDS011;551;48.524;9.056;2022-12-07T07:00:51;11.30;;;7.33;;
505;SDS011;551;48.524;9.056;2022-12-07T07:03:16;13.00;;;7.10;;
505;SDS011;551;48.524;9.056;2022-12-07T07:05:42;14.20;;;8.47;;
505;SDS011;551;48.524;9.056;2022-12-07T07:08:09;14.00;;;7.53;;
505;SDS011;551;48.524;9.056;2022-12-07T07:10:36;12.90;;;7.57;;
505;SDS011;551;48.524;9.056;2022-12-07T07:13:02;14.57;;;8.50;;
505;SDS011;551;48.524;9.056;2022-12-07T07:15:28;14.07;;;9.47;;
505;SDS011;551;48.524;9.056;2022-12-07T07:17:53;14.40;;;8.27;;
505;SDS011;551;48.524;9.056;2022-12-07T07:20:19;12.57;;;8.17;;
505;SDS011;551;48.524;9.056;2022-12-07T07:22:44;12.10;;;7.63;;
505;SDS011;551;48.524;9.056;2022-12-07T07:25:10;15.43;;;10.27;;
505;SDS011;551;48.524;9.056;2022-12-07T07:27:36;15.57;;;8.83;;
505;SDS011;551;48.524;9.056;2022-12-07T07:30:01;17.37;;;9.93;;
505;SDS011;551;48.524;9.056;2022-12-07T07:32:28;19.00;;;10.80;;
505;SDS011;551;48.524;9.056;2022-12-07T07:34:53;17.63;;;9.97;;
505;SDS011;551;48.524;9.056;2022-12-07T07:37:19;13.83;;;8.50;;
505;SDS011;551;48.524;9.056;2022-12-07T07:39:44;14.47;;;8.23;;
505;SDS011;551;48.524;9.056;2022-12-07T07:42:10;17.00;;;8.40;;
505;SDS011;551;48.524;9.056;2022-12-07T07:44:35;14.40;;;8.57;;
505;SDS011;551;48.524;9.056;2022-12-07T07:47:01;13.30;;;8.60;;
505;SDS011;551;48.524;9.056;2022-12-07T07:49:27;10.63;;;7.53;;
505;SDS011;551;48.524;9.056;2022-12-07T07:51:52;10.77;;;7.33;;
505;SDS011;551;48.524;9.056;2022-12-07T07:54:18;12.97;;;7.03;;
505;SDS011;551;48.524;9.056;2022-12-07T07:56:43;11.53;;;7.00;;
505;SDS011;551;48.524;9.056;2022-12-07T07:59:09;17.07;;;8.13;;
505;SDS011;551;48.524;9.056;2022-12-07T08:01:34;12.73;;;7.77;;
505;SDS011;551;48.524;9.056;2022-12-07T08:04:00;12.43;;;7.50;;
505;SDS011;551;48.524;9.056;2022-12-07T08:06:25;13.80;;;8.20;;
505;SDS011;551;48.524;9.056;2022-12-07T08:08:51;11.63;;;7.80;;
505;SDS011;551;48.524;9.056;2022-12-07T08:11:17;14.37;;;7.60;;
505;SDS011;551;48.524;9.056;2022-12-07T08:13:44;13.40;;;8.07;;
505;SDS011;551;48.524;9.056;2022-12-07T08:16:11;17.70;;;8.00;;
505;SDS011;551;48.524;9.056;2022-12-07T08:18:38;16.60;;;9.27;;
505;SDS011;551;48.524;9.056;2022-12-07T08:21:05;13.00;;;8.93;;
505;SDS011;551;48.524;9.056;2022-12-07T08:23:32;14.13;;;8.87;;
505;SDS011;551;48.524;9.056;2022-12-07T08:26:01;14.73;;;8.70;;
505;SDS011;551;48.524;9.056;2022-12-07T08:28:29;23.27;;;9.27;;
505;SDS011;551;48.524;9.056;2022-12-07T08:31:28;16.83;;;8.97;;
505;SDS011;551;48.524;9.056;2022-12-07T08:33:47;12.23;;;8.80;;
505;SDS011;551;48.524;9.056;2022-12-07T08:36:13;11.90;;;7.53;;
505;SDS011;551;48.524;9.056;2022-12-07T08:38:40;14.80;;;8.93;;
505;SDS011;551;48.524;9.056;2022-12-07T08:41:06;13.67;;;9.00;;
505;SDS011;551;48.524;9.056;2022-12-07T08:43:32;14.83;;;8.70;;
505;SDS011;551;48.524;9.056;2022-12-07T08:46:04;16.37;;;8.53;;
505;SDS011;551;48.524;9.056;2022-12-07T08:48:41;15.90;;;8.47;;
505;SDS011;551;48.524;9.056;2022-12-07T08:51:13;20.20;;;8.13;;
505;SDS011;551;48.524;9.056;2022-12-07T08:53:39;11.77;;;8.40;;
505;SDS011;551;48.524;9.056;2022-12-07T08:56:06;15.23;;;9.40;;
505;SDS011;551;48.524;9.056;2022-12-07T08:58:32;10.80;;;8.13;;
505;SDS011;551;48.524;9.056;2022-12-07T09:00:58;15.00;;;7.97;;
505;SDS011;551;48.524;9.056;2022-12-07T09:03:24;11.63;;;7.50;;
505;SDS011;551;48.524;9.056;2022-12-07T09:05:50;13.47;;;7.30;;
505;SDS011;551;48.524;9.056;2022-12-07T09:08:15;14.47;;;7.73;;
505;SDS011;551;48.524;9.056;2022-12-07T09:10:41;17.60;;;8.30;;
505;SDS011;551;48.524;9.056;2022-12-07T09:13:07;10.33;;;7.57;;
505;SDS011;551;48.524;9.056;2022-12-07T09:15:32;12.30;;;7.87;;
505;SDS011;551;48.524;9.056;2022-12-07T09:17:58;11.50;;;7.37;;
505;SDS011;551;48.524;9.056;2022-12-07T09:20:23;13.17;;;8.07;;
505;SDS011;551;48.524;9.056;2022-12-07T09:22:49;12.70;;;8.63;;
505;SDS011;551;48.524;9.056;2022-12-07T09:25:14;11.70;;;7.77;;
505;SDS011;551;48.524;9.056;2022-12-07T09:27:40;13.23;;;8.53;;
505;SDS011;551;48.524;9.056;2022-12-07T09:30:06;16.50;;;9.73;;
505;SDS011;551;48.524;9.056;2022-12-07T09:32:32;12.03;;;7.60;;
505;SDS011;551;48.524;9.056;2022-12-07T09:34:57;13.80;;;7.03;;
505;SDS011;551;48.524;9.056;2022-12-07T09:37:23;11.00;;;6.77;;
505;SDS011;551;48.524;9.056;2022-12-07T09:39:49;13.57;;;7.70;;
505;SDS011;551;48.524;9.056;2022-12-07T09:42:32;16.20;;;8.40;;
505;SDS011;551;48.524;9.056;2022-12-07T09:45:01;13.10;;;8.97;;
505;SDS011;551;48.524;9.056;2022-12-07T09:47:29;15.40;;;8.30;;
505;SDS011;551;48.524;9.056;2022-12-07T09:50:03;14.10;;;7.30;;
505;SDS011;551;48.524;9.056;2022-12-07T09:52:31;18.37;;;10.50;;
505;SDS011;551;48.524;9.056;2022-12-07T09:54:57;12.90;;;8.20;;
505;SDS011;551;48.524;9.056;2022-12-07T09:57:30;14.00;;;7.47;;
505;SDS011;551;48.524;9.056;2022-12-07T10:00:03;13.33;;;7.50;;
505;SDS011;551;48.524;9.056;2022-12-07T10:05:01;11.57;;;7.73;;
505;SDS011;551;48.524;9.056;2022-12-07T10:07:29;11.43;;;7.40;;
505;SDS011;551;48.524;9.056;2022-12-07T10:09:55;11.90;;;6.30;;
505;SDS011;551;48.524;9.056;2022-12-07T10:12:20;9.23;;;6.70;;
505;SDS011;551;48.524;9.056;2022-12-07T10:14:54;9.27;;;7.20;;
505;SDS011;551;48.524;9.056;2022-12-07T10:22:59;9.23;;;7.10;;
505;SDS011;551;48.524;9.056;2022-12-07T10:25:30;13.00;;;6.20;;
505;SDS011;551;48.524;9.056;2022-12-07T10:30:33;9.93;;;6.47;;
505;SDS011;551;48.524;9.056;2022-12-07T10:33:27;8.70;;;6.10;;
505;SDS011;551;48.524;9.056;2022-12-07T10:35:53;20.30;;;7.17;;
505;SDS011;551;48.524;9.056;2022-12-07T10:38:19;7.63;;;5.90;;
505;SDS011;551;48.524;9.056;2022-12-07T10:40:45;8.30;;;5.83;;
505;SDS011;551;48.524;9.056;2022-12-07T10:45:41;8.33;;;5.80;;
505;SDS011;551;48.524;9.056;2022-12-07T10:48:32;7.93;;;5.57;;
505;SDS011;551;48.524;9.056;2022-12-07T10:51:14;8.27;;;5.53;;
505;SDS011;551;48.524;9.056;2022-12-07T10:59:37;9.63;;;6.20;;
505;SDS011;551;48.524;9.056;2022-12-07T11:05:11;8.23;;;5.60;;
505;SDS011;551;48.524;9.056;2022-12-07T11:08:04;7.00;;;6.00;;
505;SDS011;551;48.524;9.056;2022-12-07T11:14:22;6.90;;;5.03;;
505;SDS011;551;48.524;9.056;2022-12-07T11:16:33;17.27;;;6.63;;
505;SDS011;551;48.524;9.056;2022-12-07T11:24:26;9.20;;;5.83;;
505;SDS011;551;48.524;9.056;2022-12-07T11:30:13;8.67;;;5.90;;
505;SDS011;551;48.524;9.056;2022-12-07T11:32:53;8.77;;;6.00;;
505;SDS011;551;48.524;9.056;2022-12-07T11:36:01;6.00;;;4.83;;
505;SDS011;551;48.524;9.056;2022-12-07T11:38:53;8.98;;;6.10;;
505;SDS011;551;48.524;9.056;2022-12-07T11:41:23;8.33;;;6.00;;
505;SDS011;551;48.524;9.056;2022-12-07T11:44:06;10.43;;;6.63;;
505;SDS011;551;48.524;9.056;2022-12-07T11:46:43;16.30;;;6.60;;
505;SDS011;551;48.524;9.056;2022-12-07T11:49:12;10.13;;;5.53;;
505;SDS011;551;48.524;9.056;2022-12-07T11:51:54;7.60;;;5.30;;
505;SDS011;551;48.524;9.056;2022-12-07T11:54:28;11.67;;;5.73;;
505;SDS011;551;48.524;9.056;2022-12-07T11:57:02;10.40;;;5.97;;
505;SDS011;551;48.524;9.056;2022-12-07T11:59:36;7.53;;;5.50;;
505;SDS011;551;48.524;9.056;2022-12-07T12:02:19;8.27;;;4.77;;
505;SDS011;551;48.524;9.056;2022-12-07T12:07:41;6.73;;;5.13;;
505;SDS011;551;48.524;9.056;2022-12-07T12:10:16;11.60;;;6.50;;
505;SDS011;551;48.524;9.056;2022-12-07T12:19:13;9.20;;;6.00;;
505;SDS011;551;48.524;9.056;2022-12-07T12:22:09;12.67;;;8.20;;
505;SDS011;551;48.524;9.056;2022-12-07T12:24:39;9.47;;;5.63;;
505;SDS011;551;48.524;9.056;2022-12-07T12:27:08;8.77;;;5.73;;
505;SDS011;551;48.524;9.056;2022-12-07T12:29:43;7.20;;;5.07;;
505;SDS011;551;48.524;9.056;2022-12-07T12:32:16;8.10;;;5.73;;
505;SDS011;551;48.524;9.056;2022-12-07T12:45:19;8.50;;;5.40;;
505;SDS011;551;48.524;9.056;2022-12-07T12:53:19;9.77;;;5.70;;
505;SDS011;551;48.524;9.056;2022-12-07T12:55:48;7.70;;;5.47;;
505;SDS011;551;48.524;9.056;2022-12-07T12:58:28;6.30;;;5.23;;
505;SDS011;551;48.524;9.056;2022-12-07T13:03:59;7.47;;;5.27;;
505;SDS011;551;48.524;9.056;2022-12-07T13:08:51;10.73;;;5.70;;
505;SDS011;551;48.524;9.056;2022-12-07T13:11:24;10.53;;;5.97;;
505;SDS011;551;48.524;9.056;2022-12-07T13:14:29;10.27;;;5.73;;
505;SDS011;551;48.524;9.056;2022-12-07T13:16:58;5.83;;;4.57;;
505;SDS011;551;48.524;9.056;2022-12-07T13:24:57;15.30;;;6.23;;
505;SDS011;551;48.524;9.056;2022-12-07T13:27:30;7.87;;;5.27;;
505;SDS011;551;48.524;9.056;2022-12-07T13:29:56;9.40;;;6.00;;
505;SDS011;551;48.524;9.056;2022-12-07T13:32:24;10.53;;;7.17;;
505;SDS011;551;48.524;9.056;2022-12-07T13:34:51;8.40;;;5.50;;
505;SDS011;551;48.524;9.056;2022-12-07T13:39:53;7.43;;;5.80;;
505;SDS011;551;48.524;9.056;2022-12-07T13:42:28;12.03;;;6.80;;
505;SDS011;551;48.524;9.056;2022-12-07T13:44:54;9.53;;;6.47;;
505;SDS011;551;48.524;9.056;2022-12-07T13:52:49;10.23;;;6.10;;
505;SDS011;551;48.524;9.056;2022-12-07T13:55:15;9.60;;;6.47;;
505;SDS011;551;48.524;9.056;2022-12-07T13:57:42;12.93;;;6.07;;
505;SDS011;551;48.524;9.056;2022-12-07T14:00:18;9.23;;;5.90;;
505;SDS011;551;48.524;9.056;2022-12-07T14:06:02;7.10;;;5.67;;
505;SDS011;551;48.524;9.056;2022-12-07T14:08:33;9.80;;;6.13;;
505;SDS011;551;48.524;9.056;2022-12-07T14:10:59;13.00;;;6.67;;
505;SDS011;551;48.524;9.056;2022-12-07T14:13:38;9.50;;;6.03;;
505;SDS011;551;48.524;9.056;2022-12-07T14:18:58;10.40;;;5.13;;
505;SDS011;551;48.524;9.056;2022-12-07T14:21:26;15.80;;;5.63;;
505;SDS011;551;48.524;9.056;2022-12-07T14:26:48;6.70;;;5.20;;
505;SDS011;551;48.524;9.056;2022-12-07T14:31:50;11.23;;;6.30;;
505;SDS011;551;48.524;9.056;2022-12-07T14:34:16;10.00;;;5.97;;
505;SDS011;551;48.524;9.056;2022-12-07T14:36:44;7.00;;;5.77;;
505;SDS011;551;48.524;9.056;2022-12-07T14:39:09;10.53;;;6.20;;
505;SDS011;551;48.524;9.056;2022-12-07T14:41:35;20.70;;;5.63;;
505;SDS011;551;48.524;9.056;2022-12-07T14:44:16;6.80;;;4.90;;
505;SDS011;551;48.524;9.056;2022-12-07T14:46:43;7.07;;;4.90;;
505;SDS011;551;48.524;9.056;2022-12-07T14:49:08;7.60;;;4.90;;
505;SDS011;551;48.524;9.056;2022-12-07T14:51:34;8.70;;;5.07;;
505;SDS011;551;48.524;9.056;2022-12-07T14:54:03;7.75;;;5.00;;
505;SDS011;551;48.524;9.056;2022-12-07T14:56:31;8.63;;;5.37;;
505;SDS011;551;48.524;9.056;2022-12-07T14:58:56;7.90;;;4.73;;
505;SDS011;551;48.524;9.056;2022-12-07T15:01:22;6.77;;;4.90;;
505;SDS011;551;48.524;9.056;2022-12-07T15:03:48;8.30;;;4.77;;
505;SDS011;551;48.524;9.056;2022-12-07T15:06:14;6.97;;;4.40;;
505;SDS011;551;48.524;9.056;2022-12-07T15:08:41;4.33;;;3.37;;
505;SDS011;551;48.524;9.056;2022-12-07T15:11:11;9.60;;;4.20;;
505;SDS011;551;48.524;9.056;2022-12-07T15:13:38;6.60;;;3.77;;
505;SDS011;551;48.524;9.056;2022-12-07T15:16:22;7.67;;;5.57;;
505;SDS011;551;48.524;9.056;2022-12-07T15:18:48;8.00;;;4.57;;
505;SDS011;551;48.524;9.056;2022-12-07T15:21:14;6.67;;;4.20;;
505;SDS011;551;48.524;9.056;2022-12-07T15:23:40;10.07;;;4.47;;
505;SDS011;551;48.524;9.056;2022-12-07T15:26:06;10.23;;;4.60;;
505;SDS011;551;48.524;9.056;2022-12-07T15:28:32;11.63;;;4.37;;
505;SDS011;551;48.524;9.056;2022-12-07T15:30:58;9.80;;;4.93;;
505;SDS011;551;48.524;9.056;2022-12-07T15:33:24;7.50;;;5.07;;
505;SDS011;551;48.524;9.056;2022-12-07T15:35:49;6.07;;;4.13;;
505;SDS011;551;48.524;9.056;2022-12-07T15:38:15;7.80;;;4.20;;
505;SDS011;551;48.524;9.056;2022-12-07T15:40:40;7.53;;;3.73;;
505;SDS011;551;48.524;9.056;2022-12-07T15:43:08;12.13;;;4.53;;
505;SDS011;551;48.524;9.056;2022-12-07T15:45:54;3.83;;;3.53;;
505;SDS011;551;48.524;9.056;2022-12-07T15:48:19;8.27;;;4.60;;
505;SDS011;551;48.524;9.056;2022-12-07T15:50:45;7.47;;;4.27;;
505;SDS011;551;48.524;9.056;2022-12-07T15:53:10;5.73;;;4.10;;
505;SDS011;551;48.524;9.056;2022-12-07T15:55:38;7.33;;;3.70;;
505;SDS011;551;48.524;9.056;2022-12-07T15:58:04;4.47;;;3.53;;
505;SDS011;551;48.524;9.056;2022-12-07T16:00:30;7.83;;;4.30;;
505;SDS011;551;48.524;9.056;2022-12-07T16:02:56;6.37;;;4.13;;
505;SDS011;551;48.524;9.056;2022-12-07T16:05:21;3.37;;;3.07;;
505;SDS011;551;48.524;9.056;2022-12-07T16:07:47;6.33;;;3.83;;
505;SDS011;551;48.524;9.056;2022-12-07T16:10:12;4.03;;;3.50;;
505;SDS011;551;48.524;9.056;2022-12-07T16:12:38;8.50;;;4.00;;
505;SDS011;551;48.524;9.056;2022-12-07T16:15:04;7.10;;;3.87;;
505;SDS011;551;48.524;9.056;2022-12-07T16:17:30;6.90;;;4.80;;
505;SDS011;551;48.524;9.056;2022-12-07T16:19:55;4.90;;;3.80;;
505;SDS011;551;48.524;9.056;2022-12-07T16:22:22;3.97;;;3.20;;
505;SDS011;551;48.524;9.056;2022-12-07T16:24:48;9.43;;;4.40;;
505;SDS011;551;48.524;9.056;2022-12-07T16:27:13;7.60;;;3.50;;
505;SDS011;551;48.524;9.056;2022-12-07T16:29:39;7.30;;;4.70;;
505;SDS011;551;48.524;9.056;2022-12-07T16:32:04;3.80;;;2.90;;
505;SDS011;551;48.524;9.056;2022-12-07T16:34:30;4.00;;;2.97;;
505;SDS011;551;48.524;9.056;2022-12-07T16:36:55;4.73;;;4.20;;
505;SDS011;551;48.524;9.056;2022-12-07T16:39:21;6.83;;;3.97;;
505;SDS011;551;48.524;9.056;2022-12-07T16:41:46;3.87;;;3.40;;
505;SDS011;551;48.524;9.056;2022-12-07T16:44:12;10.37;;;4.70;;
505;SDS011;551;48.524;9.056;2022-12-07T16:46:38;6.23;;;4.00;;
505;SDS011;551;48.524;9.056;2022-12-07T16:49:04;5.57;;;4.80;;
505;SDS011;551;48.524;9.056;2022-12-07T16:51:30;7.70;;;4.40;;
505;SDS011;551;48.524;9.056;2022-12-07T16:53:56;4.30;;;3.47;;
505;SDS011;551;48.524;9.056;2022-12-07T16:56:21;5.33;;;3.70;;
505;SDS011;551;48.524;9.056;2022-12-07T16:58:47;8.53;;;4.53;;
505;SDS011;551;48.524;9.056;2022-12-07T17:01:18;6.23;;;4.20;;
505;SDS011;551;48.524;9.056;2022-12-07T17:03:45;4.13;;;3.20;;
505;SDS011;551;48.524;9.056;2022-12-07T17:06:18;9.27;;;4.10;;
505;SDS011;551;48.524;9.056;2022-12-07T17:08:46;7.27;;;4.60;;
505;SDS011;551;48.524;9.056;2022-12-07T17:11:13;9.13;;;5.53;;
505;SDS011;551;48.524;9.056;2022-12-07T17:13:48;7.47;;;4.80;;
505;SDS011;551;48.524;9.056;2022-12-07T17:16:41;9.10;;;5.67;;
505;SDS011;551;48.524;9.056;2022-12-07T17:19:07;11.30;;;5.57;;
505;SDS011;551;48.524;9.056;2022-12-07T17:21:36;7.27;;;5.20;;
505;SDS011;551;48.524;9.056;2022-12-07T17:24:03;14.80;;;6.33;;
505;SDS011;551;48.524;9.056;2022-12-07T17:26:30;10.70;;;6.20;;
505;SDS011;551;48.524;9.056;2022-12-07T17:28:56;8.73;;;5.07;;
505;SDS011;551;48.524;9.056;2022-12-07T17:31:22;9.80;;;6.20;;
505;SDS011;551;48.524;9.056;2022-12-07T17:33:48;16.50;;;7.00;;
505;SDS011;551;48.524;9.056;2022-12-07T17:36:16;10.70;;;6.00;;
505;SDS011;551;48.524;9.056;2022-12-07T17:38:52;9.00;;;5.90;;
505;SDS011;551;48.524;9.056;2022-12-07T17:41:19;8.57;;;5.87;;
505;SDS011;551;48.524;9.056;2022-12-07T17:44:06;13.60;;;6.50;;
505;SDS011;551;48.524;9.056;2022-12-07T17:46:33;9.07;;;6.60;;